Capitan Miranda — CWBE — position and weather

sailwx.info

Track history (hours):
 
Tides and Currents Weather Stations Pressure Air Temp Water Temp Dewpoint Dewpoint Depression Visibility Wind Speed Wind Dir Waves Ship Positions

Capitan Miranda (Uruguay)

Staysail schooner. Training ship for Uruguayan Navy.

Last reported at 2018-Oct-22 16:39 UTC. Time now 2018-Dec-12 04:50 UTC.
Position S 23°05' W 042°49'.
Warning: this ship's position is 50 days out of date.

Length 60 m; draft 3.9 m.

Type: Ship. MMSI: 770576100.

Date/timePositionNaut miles runAvg speedWind from/ knotsBaromVisibWave heightAir tempDewpointWater temp
2018-Oct-22 16:39S 23°05' W 042°49'1 8.1
2018-Oct-22 16:29S 23°06' W 042°50'7 8.0
2018-Oct-22 15:37S 23°05' W 042°58'1 8.4
2018-Oct-22 15:29S 23°05' W 042°59'3 8.1
2018-Oct-22 15:03S 23°04' W 043°03'1 7.8
2018-Oct-22 14:59S 23°04' W 043°03'3 7.1
2018-Oct-22 14:30S 23°01' W 043°05'7 6.6
2018-Oct-22 13:30S 22°55' W 043°09'2 4.8
2018-Oct-22 13:03S 22°53' W 043°11'0 5.2
2018-Oct-22 13:00S 22°54' W 043°11'0 0.3
2018-Oct-22 12:30S 22°54' W 043°11'0 0.0
2018-Oct-22 12:03S 22°54' W 043°11'0 0.0
2018-Oct-22 12:00S 22°54' W 043°11'0 0.0
2018-Oct-22 11:30S 22°54' W 043°11'0 0.0
2018-Oct-22 11:03S 22°54' W 043°11'0 0.0
2018-Oct-22 11:00S 22°54' W 043°11'0 0.0
2018-Oct-22 10:30S 22°54' W 043°11'0 0.0
2018-Oct-22 10:03S 22°54' W 043°11'0 0.0
2018-Oct-22 10:00S 22°54' W 043°11'  
2018-Oct-18 15:14S 22°54' W 043°11'0 0.0
2018-Oct-18 15:03S 22°54' W 043°11'0 0.0
2018-Oct-18 15:00S 22°54' W 043°11'2 3.0
2018-Oct-18 14:30S 22°54' W 043°09'3 6.8
2018-Oct-18 14:00S 22°57' W 043°08'3 5.1
2018-Oct-18 13:29S 22°60' W 043°08'6 6.9
2018-Oct-18 12:34S 23°05' W 043°11'  
Track history (hours):
 
Tides and Currents Weather Stations Pressure Air Temp Water Temp Dewpoint Dewpoint Depression Visibility Wind Speed Wind Dir Waves Ship Positions

Capitan Miranda (Uruguay)

Staysail schooner. Training ship for Uruguayan Navy.

Last reported at 2018-Oct-22 16:39 UTC. Time now 2018-Dec-12 04:50 UTC.
Position S 23°05' W 042°49'.
Warning: this ship's position is 50 days out of date.

Length 60 m; draft 3.9 m.

Type: Ship. MMSI: 770576100.

Date/timePositionNaut miles runAvg speedWind from/ knotsBaromVisibWave heightAir tempDewpointWater temp
2018-Oct-22 16:39S 23°05' W 042°49'1 8.1
2018-Oct-22 16:29S 23°06' W 042°50'7 8.0
2018-Oct-22 15:37S 23°05' W 042°58'1 8.4
2018-Oct-22 15:29S 23°05' W 042°59'3 8.1
2018-Oct-22 15:03S 23°04' W 043°03'1 7.8
2018-Oct-22 14:59S 23°04' W 043°03'3 7.1
2018-Oct-22 14:30S 23°01' W 043°05'7 6.6
2018-Oct-22 13:30S 22°55' W 043°09'2 4.8
2018-Oct-22 13:03S 22°53' W 043°11'0 5.2
2018-Oct-22 13:00S 22°54' W 043°11'0 0.3
2018-Oct-22 12:30S 22°54' W 043°11'0 0.0
2018-Oct-22 12:03S 22°54' W 043°11'0 0.0
2018-Oct-22 12:00S 22°54' W 043°11'0 0.0
2018-Oct-22 11:30S 22°54' W 043°11'0 0.0
2018-Oct-22 11:03S 22°54' W 043°11'0 0.0
2018-Oct-22 11:00S 22°54' W 043°11'0 0.0
2018-Oct-22 10:30S 22°54' W 043°11'0 0.0
2018-Oct-22 10:03S 22°54' W 043°11'0 0.0
2018-Oct-22 10:00S 22°54' W 043°11'  
2018-Oct-18 15:14S 22°54' W 043°11'0 0.0
2018-Oct-18 15:03S 22°54' W 043°11'0 0.0
2018-Oct-18 15:00S 22°54' W 043°11'2 3.0
2018-Oct-18 14:30S 22°54' W 043°09'3 6.8
2018-Oct-18 14:00S 22°57' W 043°08'3 5.1
2018-Oct-18 13:29S 22°60' W 043°08'6 6.9
2018-Oct-18 12:34S 23°05' W 043°11'  

Dump ship's entire track history